Time;durP1;ratioP1;P1;durP2;ratioP2;P2;SDS_P1;SDS_P2;PMS_P1;PMS_P2;Temp;Humidity;BMP_temperature;BMP_pressure;BME280_temperature;BME280_humidity;BME280_pressure;Samples;Min_cycle;Max_cycle;Signal;HPM_P1;HPM_P2
2022/02/21 00:01:52;;;;;;;6.13;3.65;;;;;;;;;;5069791;28;20055;-53
2022/02/21 00:04:18;;;;;;;5.88;3.50;;;;;;;;;;5069311;28;20035;-50
2022/02/21 00:06:43;;;;;;;5.40;3.20;;;6.40;99.90;;;;;;5052280;28;20016;-53
2022/02/21 00:09:13;;;;;;;5.40;3.20;;;6.30;99.90;;;;;;5070754;28;20085;-51
2022/02/21 00:11:39;;;;;;;5.53;3.30;;;6.30;99.90;;;;;;5071648;28;20024;-57
2022/02/21 00:14:04;;;;;;;6.60;3.90;;;6.20;99.90;;;;;;5061602;28;20083;-53
2022/02/21 00:16:30;;;;;;;6.70;3.95;;;6.20;99.90;;;;;;5036408;28;20472;-53
2022/02/21 00:18:56;;;;;;;7.30;4.40;;;6.10;99.90;;;;;;5055305;28;20053;-49
2022/02/21 00:21:22;;;;;;;7.88;4.85;;;6.10;99.90;;;;;;5057560;28;20045;-51
2022/02/21 00:23:48;;;;;;;7.70;4.97;;;6.10;99.90;;;;;;5059596;28;20044;-55
2022/02/21 00:26:15;;;;;;;6.47;3.83;;;6.10;99.90;;;;;;5058975;28;20025;-55
2022/02/21 00:31:07;;;;;;;6.32;3.75;;;6.10;99.90;;;;;;5112355;23;20214;-59
2022/02/21 00:33:33;;;;;;;6.30;3.80;;;6.10;99.90;;;;;;5095639;28;20361;-56
2022/02/21 00:35:59;;;;;;;6.07;3.60;;;6.10;99.90;;;;;;5077195;28;20502;-60
2022/02/21 00:38:25;;;;;;;6.00;3.60;;;6.10;99.90;;;;;;5095903;28;20024;-60
2022/02/21 00:40:50;;;;;;;5.93;3.53;;;6.10;99.90;;;;;;5096381;28;20024;-61
2022/02/21 00:43:17;;;;;;;5.93;3.55;;;6.10;99.90;;;;;;5076965;28;20049;-55
2022/02/21 00:45:42;;;;;;;6.05;3.60;;;6.10;99.90;;;;;;5092471;28;20443;-55
2022/02/21 00:48:08;;;;;;;5.97;3.50;;;6.10;99.90;;;;;;5074496;28;20024;-56
2022/02/21 00:50:34;;;;;;;6.00;3.60;;;6.10;99.90;;;;;;5092609;28;20427;-56
2022/02/21 00:53:00;;;;;;;5.70;3.40;;;6.00;99.90;;;;;;5092866;28;20039;-55
2022/02/21 00:55:25;;;;;;;8.35;4.97;;;6.10;99.90;;;;;;5091840;28;20032;-58
2022/02/21 00:57:51;;;;;;;8.13;4.82;;;6.10;99.90;;;;;;5092188;28;20109;-60
2022/02/21 01:00:17;;;;;;;7.60;4.55;;;6.00;99.90;;;;;;5092051;28;20016;-59
2022/02/21 01:02:43;;;;;;;6.75;4.00;;;6.00;99.90;;;;;;5092204;28;20035;-54
2022/02/21 01:05:09;;;;;;;6.72;4.15;;;6.00;99.90;;;;;;5091737;28;20028;-56
2022/02/21 01:07:34;;;;;;;6.40;3.78;;;5.90;99.90;;;;;;5093944;28;20073;-59
2022/02/21 01:10:00;;;;;;;5.80;3.50;;;6.00;99.90;;;;;;5093647;28;20477;-56
2022/02/21 01:12:26;;;;;;;5.90;3.50;;;6.00;99.90;;;;;;5092224;28;20032;-56
2022/02/21 01:14:52;;;;;;;6.28;4.15;;;6.10;99.90;;;;;;5073215;28;20028;-59
2022/02/21 01:17:19;;;;;;;6.63;4.38;;;6.10;99.90;;;;;;5092304;28;20518;-59
2022/02/21 01:19:45;;;;;;;5.13;3.05;;;6.00;99.90;;;;;;5092114;28;20024;-52
2022/02/21 01:22:10;;;;;;;5.07;3.00;;;6.00;99.90;;;;;;5092231;28;20476;-57
2022/02/21 01:24:36;;;;;;;4.45;2.60;;;5.90;99.90;;;;;;5091276;28;20476;-59
2022/02/21 01:27:02;;;;;;;4.20;2.50;;;6.00;99.90;;;;;;5091951;28;20028;-55
2022/02/21 01:29:27;;;;;;;4.55;2.78;;;6.00;99.90;;;;;;5037293;28;1049128;-61
2022/02/21 01:31:54;;;;;;;3.58;2.10;;;6.00;99.90;;;;;;5074760;28;20125;-57
2022/02/21 01:34:20;;;;;;;4.43;2.60;;;6.00;99.90;;;;;;5073640;28;20483;-57
2022/02/21 01:36:46;;;;;;;6.10;3.67;;;6.00;99.90;;;;;;5093062;28;20490;-56
2022/02/21 01:39:12;;;;;;;10.38;6.10;;;5.80;99.90;;;;;;5092951;28;20024;-58
2022/02/21 01:41:38;;;;;;;8.82;5.22;;;5.70;99.90;;;;;;5092042;28;20055;-59
2022/02/21 01:44:05;;;;;;;7.38;4.40;;;;;;;;;;5092307;28;20162;-58
2022/02/21 01:46:31;;;;;;;7.10;4.22;;;;;;;;;;5092728;28;20469;-58
2022/02/21 01:48:58;;;;;;;6.97;4.20;;;;;;;;;;5092808;28;20073;-59
2022/02/21 01:51:24;;;;;;;6.72;4.00;;;;;;;;;;5074114;28;20028;-56
2022/02/21 01:53:50;;;;;;;6.60;3.90;;;;;;;;;;5092238;28;20067;-56
2022/02/21 01:56:16;;;;;;;6.18;3.67;;;;;;;;;;5092419;28;20060;-58
2022/02/21 01:58:42;;;;;;;6.40;3.80;;;;;;;;;;5074467;28;20559;-58
2022/02/21 02:01:08;;;;;;;6.20;3.70;;;;;;;;;;5074380;28;20123;-57
2022/02/21 02:03:33;;;;;;;5.90;3.50;;;5.60;99.90;;;;;;5094699;28;20030;-53
2022/02/21 02:05:59;;;;;;;6.13;3.65;;;5.60;99.90;;;;;;5076754;28;20028;-51
2022/02/21 02:08:24;;;;;;;7.45;4.50;;;5.50;99.90;;;;;;5095323;28;20102;-57
2022/02/21 02:10:50;;;;;;;10.05;5.95;;;5.30;99.90;;;;;;5096145;28;20028;-57
2022/02/21 02:13:16;;;;;;;11.88;7.00;;;5.00;99.90;;;;;;5077903;28;20115;-58
2022/02/21 02:15:41;;;;;;;17.90;12.70;;;4.80;99.90;;;;;;5094319;28;20503;-52
2022/02/21 02:18:07;;;;;;;13.48;8.50;;;4.70;99.90;;;;;;5092431;28;20483;-53
2022/02/21 02:20:32;;;;;;;10.40;6.20;;;4.50;99.90;;;;;;5092451;28;20047;-55
2022/02/21 02:22:59;;;;;;;9.20;5.50;;;4.50;99.90;;;;;;5092013;28;20035;-55
2022/02/21 02:25:24;;;;;;;8.88;5.25;;;4.60;99.90;;;;;;5091816;28;20032;-53
2022/02/21 02:27:50;;;;;;;8.57;5.10;;;4.70;99.90;;;;;;5092602;28;20082;-56
2022/02/21 02:30:16;;;;;;;8.00;4.72;;;4.80;99.90;;;;;;5091996;28;20048;-57
2022/02/21 02:32:41;;;;;;;7.85;4.65;;;5.00;99.90;;;;;;5092053;28;20046;-57
2022/02/21 02:35:07;;;;;;;7.93;4.70;;;5.00;99.90;;;;;;5072942;28;20024;-55
2022/02/21 02:37:33;;;;;;;10.30;6.10;;;5.00;99.90;;;;;;5091965;28;20055;-55
2022/02/21 02:39:59;;;;;;;9.68;5.82;;;5.10;99.90;;;;;;5091775;28;20029;-52
2022/02/21 02:42:25;;;;;;;7.95;4.75;;;5.10;99.90;;;;;;5092069;28;20023;-58
2022/02/21 02:44:50;;;;;;;8.40;5.00;;;5.00;99.90;;;;;;5091199;28;20028;-52
2022/02/21 02:47:16;;;;;;;7.88;4.70;;;4.80;99.90;;;;;;5092065;28;20028;-58
2022/02/21 02:49:42;;;;;;;8.07;4.80;;;4.80;99.90;;;;;;5091923;28;20028;-60
2022/02/21 02:52:09;;;;;;;9.20;5.97;;;4.90;99.90;;;;;;5074141;28;20046;-59
2022/02/21 02:54:34;;;;;;;6.30;3.70;;;4.90;99.90;;;;;;5095029;28;20035;-54
2022/02/21 02:57:00;;;;;;;6.20;3.70;;;4.90;99.90;;;;;;5077571;28;20400;-60
2022/02/21 02:59:26;;;;;;;5.55;3.30;;;4.90;99.90;;;;;;5096019;28;20395;-58
2022/02/21 03:01:52;;;;;;;5.50;3.30;;;5.00;99.90;;;;;;5077471;28;20024;-55
2022/02/21 03:04:18;;;;;;;5.50;3.20;;;5.00;99.90;;;;;;5094932;28;20020;-55
2022/02/21 03:06:44;;;;;;;7.57;4.50;;;5.10;99.90;;;;;;5095654;28;20099;-57
2022/02/21 03:09:09;;;;;;;12.55;8.13;;;4.90;99.90;;;;;;5095450;28;20024;-54
2022/02/21 03:11:35;;;;;;;12.80;7.50;;;4.70;99.90;;;;;;5095523;28;20027;-54
2022/02/21 03:14:01;;;;;;;11.98;7.05;;;4.40;99.90;;;;;;5095096;28;20031;-57
2022/02/21 03:16:27;;;;;;;10.80;6.40;;;4.30;99.90;;;;;;5095188;28;20496;-55
2022/02/21 03:18:53;;;;;;;11.50;6.70;;;4.30;99.90;;;;;;5095487;28;20048;-56
2022/02/21 03:21:20;;;;;;;10.27;6.10;;;4.30;99.90;;;;;;5095281;28;20028;-57
2022/02/21 03:23:45;;;;;;;8.85;5.22;;;4.30;99.90;;;;;;5095128;28;20029;-57
2022/02/21 03:26:11;;;;;;;9.70;5.75;;;4.30;99.90;;;;;;5094625;28;20035;-56
2022/02/21 03:28:36;;;;;;;10.07;5.90;;;4.30;99.90;;;;;;5095133;28;20050;-57
2022/02/21 03:31:02;;;;;;;9.77;5.80;;;4.40;99.90;;;;;;5095309;28;20066;-57
2022/02/21 03:33:28;;;;;;;9.77;5.75;;;4.40;99.90;;;;;;5095165;28;20032;-59
2022/02/21 03:35:53;;;;;;;11.35;7.00;;;4.40;99.90;;;;;;5093758;28;20480;-59
2022/02/21 03:38:19;;;;;;;18.17;7.28;;;4.40;99.90;;;;;;5094860;28;20052;-53
2022/02/21 03:40:45;;;;;;;24.70;7.47;;;4.50;99.90;;;;;;5094880;28;20387;-54
2022/02/21 03:43:10;;;;;;;16.02;6.43;;;4.50;99.90;;;;;;5076590;28;20028;-58
2022/02/21 03:45:36;;;;;;;18.60;6.28;;;4.60;99.90;;;;;;5075876;28;20119;-56
2022/02/21 03:48:02;;;;;;;20.73;6.15;;;4.60;99.90;;;;;;5094936;28;20384;-56
2022/02/21 03:50:28;;;;;;;18.65;5.38;;;4.60;99.90;;;;;;5094666;28;20038;-54
2022/02/21 03:52:54;;;;;;;12.43;5.30;;;4.60;99.90;;;;;;5076475;28;20028;-59
2022/02/21 03:55:20;;;;;;;16.98;5.15;;;4.50;99.90;;;;;;5093786;28;20028;-59
2022/02/21 03:57:46;;;;;;;20.95;5.55;;;4.50;99.90;;;;;;5094606;28;20089;-55
2022/02/21 04:00:13;;;;;;;20.23;5.65;;;4.40;99.90;;;;;;5094293;28;20039;-58
2022/02/21 04:02:40;;;;;;;16.92;5.28;;;4.30;99.90;;;;;;5094280;28;20028;-54
2022/02/21 04:05:06;;;;;;;17.95;5.70;;;4.30;99.90;;;;;;5092601;28;20443;-53
2022/02/21 04:07:32;;;;;;;14.75;5.78;;;4.40;99.90;;;;;;5094178;28;20072;-55
2022/02/21 04:09:58;;;;;;;19.23;6.82;;;4.50;99.90;;;;;;5094185;28;20028;-51
2022/02/21 04:12:23;;;;;;;14.63;5.28;;;4.60;99.90;;;;;;5094442;28;20154;-57
2022/02/21 04:14:49;;;;;;;21.77;6.78;;;4.50;99.90;;;;;;5093340;28;20475;-56
2022/02/21 04:17:15;;;;;;;15.48;5.68;;;4.50;99.90;;;;;;5076116;28;20031;-59
2022/02/21 04:19:41;;;;;;;17.27;6.43;;;4.50;99.90;;;;;;5076021;28;20034;-58
2022/02/21 04:22:11;;;;;;;12.60;5.63;;;4.50;99.90;;;;;;5093966;28;20028;-54
2022/02/21 04:24:38;;;;;;;21.80;6.65;;;4.50;99.90;;;;;;5075329;28;20026;-54
2022/02/21 04:27:04;;;;;;;17.80;5.55;;;4.40;99.90;;;;;;5094272;28;20020;-56
2022/02/21 04:29:29;;;;;;;15.55;5.63;;;4.40;99.90;;;;;;5093730;28;20036;-58
2022/02/21 04:31:55;;;;;;;17.65;5.53;;;4.40;99.90;;;;;;5093919;28;20051;-56
2022/02/21 04:34:21;;;;;;;12.40;4.80;;;4.40;99.90;;;;;;5093019;28;20085;-55
2022/02/21 04:36:46;;;;;;;17.52;5.93;;;4.50;99.90;;;;;;5093746;28;20502;-57
2022/02/21 04:39:12;;;;;;;17.80;5.25;;;4.50;99.90;;;;;;5093772;28;20024;-56
2022/02/21 04:41:38;;;;;;;16.98;5.50;;;4.50;99.90;;;;;;5093570;28;20016;-58
2022/02/21 04:44:04;;;;;;;17.27;5.32;;;4.50;99.90;;;;;;5092921;28;20377;-54
2022/02/21 04:46:30;;;;;;;16.42;5.10;;;4.60;99.90;;;;;;5093780;28;20111;-58
2022/02/21 04:48:55;;;;;;;16.70;5.35;;;4.60;99.90;;;;;;5093568;28;20133;-58
2022/02/21 04:51:21;;;;;;;14.77;5.30;;;4.60;99.90;;;;;;5093462;28;20035;-56
2022/02/21 04:53:46;;;;;;;23.00;6.28;;;4.70;99.90;;;;;;5092991;28;20169;-57
2022/02/21 04:56:12;;;;;;;18.75;5.95;;;4.70;99.90;;;;;;5075120;28;20032;-56
2022/02/21 04:58:38;;;;;;;14.80;5.28;;;4.60;99.90;;;;;;5093954;28;20024;-53
2022/02/21 05:01:03;;;;;;;13.45;4.30;;;4.40;99.90;;;;;;5093659;28;20044;-58
2022/02/21 05:03:29;;;;;;;15.05;5.65;;;4.20;99.90;;;;;;5075276;28;20024;-57
2022/02/21 05:05:55;;;;;;;15.45;4.88;;;4.00;99.90;;;;;;5092549;28;20864;-58
2022/02/21 05:08:20;;;;;;;16.92;5.88;;;3.90;99.90;;;;;;5092959;28;20388;-55
2022/02/21 05:10:46;;;;;;;17.02;5.30;;;3.90;99.90;;;;;;5092967;28;20032;-57
2022/02/21 05:13:12;;;;;;;16.90;5.10;;;;;;;;;;5093229;28;20032;-57
2022/02/21 05:15:38;;;;;;;18.67;4.82;;;3.90;99.90;;;;;;5092351;28;20103;-54
2022/02/21 05:18:03;;;;;;;19.27;5.07;;;3.80;99.90;;;;;;5092801;28;20024;-59
2022/02/21 05:20:29;;;;;;;15.70;4.97;;;3.70;99.90;;;;;;5092564;28;20028;-54
2022/02/21 05:22:55;;;;;;;18.45;5.00;;;3.50;99.90;;;;;;5092888;28;20035;-59
2022/02/21 05:25:20;;;;;;;14.88;4.95;;;3.50;99.90;;;;;;5072364;28;20028;-60
2022/02/21 05:27:46;;;;;;;14.95;5.03;;;3.40;99.90;;;;;;5092793;28;20036;-56
2022/02/21 05:30:13;;;;;;;17.90;5.22;;;3.30;99.90;;;;;;5074809;28;20099;-59
2022/02/21 05:32:39;;;;;;;16.27;5.45;;;3.20;99.90;;;;;;5093073;28;20024;-60
2022/02/21 05:35:05;;;;;;;14.95;4.30;;;3.20;99.90;;;;;;5092353;28;20154;-54
2022/02/21 05:37:31;;;;;;;16.25;5.28;;;3.10;99.90;;;;;;5092842;28;20103;-57
2022/02/21 05:39:56;;;;;;;16.90;6.30;;;3.10;99.90;;;;;;5074753;28;20052;-53
2022/02/21 05:42:22;;;;;;;19.05;4.57;;;3.10;99.90;;;;;;5074711;28;20082;-60
2022/02/21 05:44:48;;;;;;;16.92;4.88;;;3.00;99.90;;;;;;5091815;28;20510;-57
2022/02/21 05:47:13;;;;;;;13.57;3.78;;;3.00;99.90;;;;;;5092347;28;20499;-57
2022/02/21 05:49:39;;;;;;;17.17;4.50;;;3.00;99.90;;;;;;5073981;28;20032;-56
2022/02/21 05:52:05;;;;;;;19.77;5.93;;;3.00;99.90;;;;;;5092168;28;20024;-58
2022/02/21 05:54:31;;;;;;;26.98;5.15;;;3.00;99.90;;;;;;5091392;28;20021;-56
2022/02/21 05:56:56;;;;;;;24.73;4.55;;;3.00;99.90;;;;;;5092189;28;20050;-56
2022/02/21 05:59:22;;;;;;;15.05;4.43;;;3.10;99.90;;;;;;5092187;28;20099;-58
2022/02/21 06:01:48;;;;;;;17.13;6.18;;;3.10;99.90;;;;;;5092105;28;20415;-59
2022/02/21 06:04:14;;;;;;;15.30;4.85;;;3.10;99.90;;;;;;5073407;28;20024;-57
2022/02/21 06:06:39;;;;;;;18.50;5.35;;;3.10;99.90;;;;;;5092077;28;20024;-55
2022/02/21 06:09:06;;;;;;;15.40;5.13;;;3.20;99.90;;;;;;5092349;28;20396;-57
2022/02/21 06:11:31;;;;;;;20.77;5.00;;;3.30;99.90;;;;;;5092004;28;20153;-56
2022/02/21 06:13:57;;;;;;;18.38;5.22;;;3.30;99.90;;;;;;5073192;28;20088;-56
2022/02/21 06:16:23;;;;;;;15.63;5.10;;;3.40;99.90;;;;;;5091359;28;20020;-54
2022/02/21 06:18:49;;;;;;;15.68;4.57;;;3.50;99.90;;;;;;5091935;28;20076;-57
2022/02/21 06:21:15;;;;;;;15.00;5.85;;;3.70;99.90;;;;;;5074020;28;20423;-55
2022/02/21 06:23:40;;;;;;;16.45;5.80;;;3.80;99.90;;;;;;5091849;28;20025;-55
2022/02/21 06:26:06;;;;;;;19.13;5.38;;;3.90;99.90;;;;;;5091054;28;20020;-56
2022/02/21 06:28:33;;;;;;;16.42;4.82;;;4.00;99.90;;;;;;5094875;28;20054;-56
2022/02/21 06:30:59;;;;;;;13.73;4.80;;;4.10;99.90;;;;;;5100282;22;20218;-55
2022/02/21 06:33:25;;;;;;;15.57;6.00;;;4.20;99.90;;;;;;5074927;28;20076;-53
2022/02/21 06:35:50;;;;;;;14.73;5.32;;;4.10;99.90;;;;;;5073446;28;20032;-50
2022/02/21 06:38:16;;;;;;;16.55;5.53;;;4.20;99.90;;;;;;5073936;28;20491;-56
2022/02/21 06:40:42;;;;;;;21.60;5.63;;;4.20;99.90;;;;;;5063723;28;20043;-50
2022/02/21 06:43:08;;;;;;;24.40;6.07;;;4.20;99.90;;;;;;5074971;28;20035;-50
2022/02/21 06:45:34;;;;;;;17.83;5.63;;;4.30;99.90;;;;;;5074313;28;20038;-51
2022/02/21 06:47:59;;;;;;;25.42;5.82;;;4.30;99.90;;;;;;5073118;28;20370;-50
2022/02/21 06:50:26;;;;;;;22.50;5.75;;;4.40;99.90;;;;;;5055306;28;20544;-50
2022/02/21 06:52:52;;;;;;;19.77;6.63;;;4.40;99.90;;;;;;5053558;28;20044;-57
2022/02/21 06:55:18;;;;;;;17.83;4.97;;;4.40;99.90;;;;;;5054634;28;20029;-52
2022/02/21 06:57:46;;;;;;;17.58;4.63;;;4.40;99.90;;;;;;5066046;28;20055;-55
2022/02/21 07:00:13;;;;;;;20.42;6.07;;;4.40;99.90;;;;;;5075445;28;20025;-51
2022/02/21 07:02:39;;;;;;;13.63;5.05;;;4.40;99.90;;;;;;5074019;28;20481;-54
2022/02/21 07:05:06;;;;;;;16.55;5.15;;;4.50;99.90;;;;;;5073345;28;20028;-57
2022/02/21 07:07:32;;;;;;;16.88;4.88;;;4.50;99.90;;;;;;5073966;28;20028;-56
2022/02/21 07:09:58;;;;;;;14.20;4.03;;;4.50;99.90;;;;;;5074764;28;20025;-54
2022/02/21 07:12:23;;;;;;;26.80;5.22;;;4.40;99.90;;;;;;5075086;28;20032;-55
2022/02/21 07:14:49;;;;;;;15.30;4.80;;;4.50;99.90;;;;;;5062735;28;20128;-54
2022/02/21 07:17:15;;;;;;;17.50;5.93;;;4.50;99.90;;;;;;5055952;28;20049;-48
2022/02/21 07:19:40;;;;;;;15.77;5.13;;;4.50;99.90;;;;;;5055342;28;20044;-53
2022/02/21 07:22:06;;;;;;;16.25;4.97;;;4.50;99.90;;;;;;5054777;28;20080;-52
2022/02/21 07:24:32;;;;;;;15.32;5.85;;;4.50;99.90;;;;;;5054249;28;20033;-55
2022/02/21 07:27:00;;;;;;;21.17;5.15;;;4.60;99.90;;;;;;5054918;28;20174;-52
2022/02/21 07:29:29;;;;;;;15.05;5.15;;;4.60;99.90;;;;;;5054861;28;20063;-52
2022/02/21 07:31:54;;;;;;;18.38;5.40;;;4.60;99.90;;;;;;5054699;28;20095;-55
2022/02/21 07:34:20;;;;;;;23.65;6.35;;;4.70;99.90;;;;;;5053093;28;20021;-53
2022/02/21 07:36:46;;;;;;;15.82;5.60;;;4.70;99.90;;;;;;5054975;28;20029;-54
2022/02/21 07:39:12;;;;;;;18.98;4.93;;;4.70;99.90;;;;;;5066991;28;20027;-52
2022/02/21 07:41:41;;;;;;;14.40;4.57;;;4.70;99.90;;;;;;5073349;28;20480;-55
2022/02/21 07:44:07;;;;;;;15.13;5.30;;;4.80;99.90;;;;;;5072276;28;20027;-53
2022/02/21 07:46:32;;;;;;;12.85;5.03;;;4.80;99.90;;;;;;5074911;28;20471;-53
2022/02/21 07:48:58;;;;;;;17.00;5.57;;;4.80;99.90;;;;;;5075448;28;20043;-52
2022/02/21 07:51:24;;;;;;;18.35;5.70;;;4.90;99.90;;;;;;5073626;28;20035;-50
2022/02/21 07:53:50;;;;;;;17.48;5.00;;;5.00;99.90;;;;;;5074359;28;20447;-51
2022/02/21 07:56:16;;;;;;;21.00;5.85;;;5.00;99.90;;;;;;5074148;28;20020;-51
2022/02/21 07:58:41;;;;;;;16.92;5.40;;;5.00;99.90;;;;;;5074631;28;20032;-51
2022/02/21 08:01:07;;;;;;;17.70;5.45;;;5.00;99.90;;;;;;5073730;28;20518;-52
2022/02/21 08:03:36;;;;;;;15.57;5.43;;;5.00;99.90;;;;;;5074273;28;20082;-54
2022/02/21 08:06:06;;;;;;;20.40;5.60;;;5.00;99.90;;;;;;5073455;28;20033;-52
2022/02/21 08:08:32;;;;;;;14.80;4.95;;;5.00;99.90;;;;;;5074440;28;20024;-52
2022/02/21 08:10:57;;;;;;;20.95;6.68;;;5.00;99.90;;;;;;5073062;28;20032;-52
2022/02/21 08:13:23;;;;;;;22.85;5.82;;;4.90;99.90;;;;;;5073999;28;20099;-54
2022/02/21 08:15:48;;;;;;;19.40;6.28;;;4.90;99.90;;;;;;5061628;28;20033;-50
2022/02/21 08:18:14;;;;;;;19.63;5.18;;;4.90;99.90;;;;;;5053863;28;20049;-53
2022/02/21 08:20:40;;;;;;;14.88;5.63;;;4.90;99.90;;;;;;5052364;28;20448;-53
2022/02/21 08:23:05;;;;;;;16.65;5.25;;;5.00;99.90;;;;;;5052581;28;20021;-51
2022/02/21 08:25:35;;;;;;;13.80;4.90;;;5.20;99.90;;;;;;5053278;28;20067;-53
2022/02/21 08:28:02;;;;;;;17.63;5.35;;;5.10;99.90;;;;;;5052493;28;20044;-51
2022/02/21 08:30:27;;;;;;;15.45;5.13;;;5.20;99.90;;;;;;5052160;28;20033;-52
2022/02/21 08:32:53;;;;;;;16.88;5.05;;;5.30;99.90;;;;;;5053355;28;20029;-52
2022/02/21 08:35:20;;;;;;;19.67;6.07;;;5.30;99.90;;;;;;5053014;28;20060;-55
2022/02/21 08:37:45;;;;;;;17.75;5.50;;;5.30;99.90;;;;;;5053085;28;20074;-51
2022/02/21 08:40:14;;;;;;;19.67;6.30;;;5.30;99.90;;;;;;5053600;28;20025;-53
2022/02/21 08:42:41;;;;;;;20.50;6.95;;;5.40;99.90;;;;;;5064949;28;20404;-51
2022/02/21 08:45:08;;;;;;;17.83;5.32;;;5.40;99.90;;;;;;5072412;28;20111;-53
2022/02/21 08:47:34;;;;;;;15.93;5.00;;;5.50;99.90;;;;;;5072984;28;20031;-50
2022/02/21 08:50:00;;;;;;;17.38;5.70;;;5.60;99.90;;;;;;5072565;28;20029;-55
2022/02/21 08:52:25;;;;;;;19.25;5.75;;;5.60;99.90;;;;;;5073094;28;20032;-54
2022/02/21 08:54:52;;;;;;;14.38;5.43;;;5.50;99.90;;;;;;5072107;28;20537;-53
2022/02/21 08:57:17;;;;;;;16.50;5.03;;;5.50;99.90;;;;;;5071658;28;20119;-54
2022/02/21 08:59:43;;;;;;;18.67;5.80;;;5.40;99.90;;;;;;5072686;28;20106;-55
2022/02/21 09:02:10;;;;;;;14.85;5.20;;;5.40;99.90;;;;;;5073050;28;20428;-49
2022/02/21 09:04:36;;;;;;;26.25;5.72;;;5.40;99.90;;;;;;5070961;28;20052;-53
2022/02/21 09:07:02;;;;;;;18.90;5.90;;;5.50;99.90;;;;;;5072728;28;20105;-52
2022/02/21 09:09:28;;;;;;;19.23;6.63;;;5.50;99.90;;;;;;5071124;28;20504;-52
2022/02/21 09:11:54;;;;;;;19.55;5.70;;;5.60;99.90;;;;;;5072525;28;20108;-52
2022/02/21 09:14:20;;;;;;;18.52;5.22;;;5.60;99.90;;;;;;5071978;28;20016;-49
2022/02/21 09:16:46;;;;;;;16.08;4.57;;;5.50;99.90;;;;;;5072399;28;20082;-54
2022/02/21 09:19:12;;;;;;;21.52;5.88;;;5.50;99.90;;;;;;5066346;28;20075;-52
2022/02/21 09:21:37;;;;;;;14.48;4.95;;;5.40;99.90;;;;;;5052658;28;20023;-50
2022/02/21 09:24:03;;;;;;;17.90;4.60;;;5.40;99.90;;;;;;5050792;28;20021;-51
2022/02/21 09:26:31;;;;;;;17.63;5.82;;;5.30;99.90;;;;;;5052371;28;20037;-56
2022/02/21 09:28:58;;;;;;;15.73;4.57;;;5.30;99.90;;;;;;5051374;28;20032;-53
2022/02/21 09:31:24;;;;;;;16.77;5.28;;;5.40;99.90;;;;;;5051066;28;20041;-53
2022/02/21 09:33:49;;;;;;;17.90;6.22;;;5.40;99.90;;;;;;5051801;28;20060;-59
2022/02/21 09:36:15;;;;;;;15.68;5.57;;;5.50;99.90;;;;;;5052290;28;20067;-55
2022/02/21 09:38:41;;;;;;;16.25;5.78;;;5.60;99.90;;;;;;5051129;28;20028;-62
2022/02/21 09:41:07;;;;;;;16.35;5.47;;;5.60;99.90;;;;;;5050746;28;20016;-61
2022/02/21 09:43:33;;;;;;;16.42;5.57;;;5.60;99.90;;;;;;5070099;28;20484;-63
2022/02/21 09:46:05;;;;;;;15.75;5.47;;;5.50;99.90;;;;;;5071599;28;20029;-62
2022/02/21 09:48:31;;;;;;;20.45;5.22;;;5.60;99.90;;;;;;5070728;28;20480;-63
2022/02/21 09:51:01;;;;;;;19.20;5.63;;;5.60;99.90;;;;;;5072546;28;20108;-62
2022/02/21 09:53:33;;;;;;;15.30;5.32;;;5.60;99.90;;;;;;5070464;28;20032;-62
2022/02/21 09:55:59;;;;;;;15.82;5.53;;;5.60;99.90;;;;;;5072568;28;20028;-66
2022/02/21 09:58:25;;;;;;;19.25;5.32;;;5.70;99.90;;;;;;5071387;28;20028;-64
2022/02/21 10:00:52;;;;;;;17.30;4.90;;;5.70;99.90;;;;;;5070847;28;20473;-59
2022/02/21 10:03:39;;;;;;;23.00;6.82;;;5.60;99.90;;;;;;5070346;28;20025;-56
2022/02/21 10:06:29;;;;;;;18.10;6.05;;;5.50;99.90;;;;;;5056829;28;20056;-54
2022/02/21 10:09:01;;;;;;;16.20;5.30;;;5.50;99.90;;;;;;5072715;28;20144;-56
2022/02/21 10:11:32;;;;;;;13.55;5.70;;;5.40;99.90;;;;;;5062208;28;20024;-60
2022/02/21 10:14:05;;;;;;;15.20;5.28;;;5.50;99.90;;;;;;5061950;28;20380;-52
2022/02/21 10:16:54;;;;;;;18.52;7.22;;;5.20;99.90;;;;;;5059772;28;20017;-54
2022/02/21 10:19:21;;;;;;;17.83;10.25;;;4.90;99.90;;;;;;5049807;28;20021;-53
2022/02/21 10:22:08;;;;;;;21.17;18.48;;;4.80;99.90;;;;;;5051982;28;20627;-51
2022/02/21 10:24:44;;;;;;;26.40;19.33;;;4.50;99.90;;;;;;5051089;28;20021;-53
2022/02/21 10:27:29;;;;;;;24.40;19.58;;;4.30;99.90;;;;;;5052278;28;20112;-55
2022/02/21 10:30:07;;;;;;;25.05;21.60;;;4.20;99.90;;;;;;5051805;28;20106;-53
2022/02/21 10:32:38;;;;;;;21.77;19.58;;;4.00;99.90;;;;;;5052169;28;20497;-50
2022/02/21 10:35:18;;;;;;;23.00;17.77;;;3.90;99.90;;;;;;5049158;28;20037;-55
2022/02/21 10:37:50;;;;;;;20.63;18.02;;;3.80;99.90;;;;;;5052075;28;20052;-57
2022/02/21 10:40:30;;;;;;;23.15;20.85;;;3.80;99.90;;;;;;5051500;28;20032;-53
2022/02/21 10:43:06;;;;;;;23.38;18.98;;;3.80;99.90;;;;;;5065592;28;20024;-56
2022/02/21 10:45:32;;;;;;;21.15;18.95;;;3.90;99.90;;;;;;5071100;28;20487;-57
2022/02/21 10:48:01;;;;;;;23.42;16.50;;;4.00;99.90;;;;;;5071393;28;20137;-55
2022/02/21 10:50:28;;;;;;;28.20;17.65;;;;;;;;;;5070813;28;20439;-59
2022/02/21 10:52:54;;;;;;;19.30;14.32;;;;;;;;;;5071952;28;20036;-54
2022/02/21 10:55:20;;;;;;;20.85;14.00;;;;;;;;;;5071448;28;20028;-52
2022/02/21 10:57:47;;;;;;;23.33;14.85;;;;;;;;;;5070341;28;20017;-58
2022/02/21 11:00:13;;;;;;;24.38;13.95;;;;;;;;;;5071668;28;20024;-56
2022/02/21 11:02:40;;;;;;;20.00;12.85;;;;;;;;;;5072740;28;20033;-55
2022/02/21 11:05:08;;;;;;;19.90;13.75;;;;;;;;;;5070042;28;20108;-54
2022/02/21 11:07:35;;;;;;;18.55;16.23;;;;;;;;;;5071977;28;20070;-54
2022/02/21 11:10:03;;;;;;;22.30;17.75;;;;;;;;;;5072232;28;20085;-54
2022/02/21 11:12:34;;;;;;;18.85;14.90;;;;;;;;;;5072825;28;20089;-55
2022/02/21 11:15:01;;;;;;;20.80;15.77;;;;;;;;;;5077706;28;20056;-56
2022/02/21 11:17:28;;;;;;;17.85;13.18;;;;;;;;;;5073976;28;20020;-57
2022/02/21 11:19:54;;;;;;;19.58;11.68;;;;;;;;;;5075156;28;20024;-54
2022/02/21 11:22:21;;;;;;;25.77;12.70;;;;;;;;;;5074604;28;20024;-58
2022/02/21 11:24:52;;;;;;;24.48;11.93;;;;;;;;;;5075448;28;20138;-56
2022/02/21 11:27:22;;;;;;;18.90;10.23;;;;;;;;;;5074835;28;20518;-57
2022/02/21 11:30:05;;;;;;;18.70;10.10;;;;;;;;;;5074120;28;20036;-57
2022/02/21 11:32:31;;;;;;;16.42;10.23;;;;;;;;;;5073888;28;20020;-56
2022/02/21 11:35:32;;;;;;;18.42;10.50;;;;;;;;;;5074882;28;20422;-53
2022/02/21 11:38:17;;;;;;;18.30;10.57;;;;;;;;;;5015299;28;20022;-55
2022/02/21 11:40:53;;;;;;;20.15;10.55;;;;;;;;;;5073413;28;20121;-55
2022/02/21 11:43:46;;;;;;;18.90;11.32;;;;;;;;;;5079083;28;20035;-55
2022/02/21 11:46:22;;;;;;;24.00;11.95;;;;;;;;;;5076087;28;20037;-56
2022/02/21 11:48:49;;;;;;;18.77;13.75;;;;;;;;;;5076377;28;20485;-55
2022/02/21 11:51:26;;;;;;;24.45;14.70;;;;;;;;;;5074084;28;20551;-54
2022/02/21 11:53:52;;;;;;;21.40;14.40;;;;;;;;;;5077743;28;20040;-54
2022/02/21 11:56:18;;;;;;;19.42;14.38;;;;;;;;;;5079462;28;20093;-52
2022/02/21 11:58:45;;;;;;;18.90;13.60;;;;;;;;;;5079068;28;20025;-55
2022/02/21 12:01:12;;;;;;;20.45;12.85;;;;;;;;;;5077474;28;20531;-56
2022/02/21 12:03:38;;;;;;;20.40;13.02;;;;;;;;;;5079118;28;20020;-56
2022/02/21 12:06:04;;;;;;;23.77;12.45;;;;;;;;;;5079864;28;20028;-54
2022/02/21 12:08:30;;;;;;;20.85;11.73;;;;;;;;;;5078894;28;20080;-57
2022/02/21 12:11:12;;;;;;;18.67;11.57;;;;;;;;;;5075388;28;20035;-52
2022/02/21 12:14:17;;;;;;;20.30;11.82;;;4.10;99.90;;;;;;5075811;28;20059;-52
2022/02/21 12:16:57;;;;;;;18.98;13.88;;;4.10;99.90;;;;;;5070512;28;20036;-55
2022/02/21 12:19:28;;;;;;;16.73;9.75;;;4.00;99.90;;;;;;5074586;28;20044;-57
2022/02/21 12:22:15;;;;;;;17.25;7.10;;;3.90;99.90;;;;;;5074513;28;20021;-53
2022/02/21 12:25:05;;;;;;;17.15;7.57;;;3.90;99.90;;;;;;5073470;28;20024;-55
2022/02/21 12:27:31;;;;;;;20.27;8.75;;;3.90;99.90;;;;;;5074797;28;20020;-57
2022/02/21 12:29:57;;;;;;;18.77;8.75;;;4.00;99.90;;;;;;5091344;23;20024;-59
2022/02/21 12:32:27;;;;;;;20.40;7.82;;;4.00;99.90;;;;;;5092207;28;20040;-59
2022/02/21 12:34:53;;;;;;;19.10;8.60;;;4.00;99.90;;;;;;5092693;28;20012;-56
2022/02/21 12:37:19;;;;;;;14.75;5.00;;;4.00;99.90;;;;;;5093979;28;20095;-53
2022/02/21 12:39:48;;;;;;;17.20;4.55;;;4.00;99.90;;;;;;5094103;28;20024;-55
2022/02/21 12:42:21;;;;;;;17.90;5.28;;;4.00;99.90;;;;;;5092248;28;20108;-57
2022/02/21 12:44:46;;;;;;;14.43;4.20;;;3.90;99.90;;;;;;5089277;28;20023;-55
2022/02/21 12:47:12;;;;;;;14.93;4.82;;;4.00;99.90;;;;;;5092231;28;20028;-59
2022/02/21 12:49:47;;;;;;;15.43;6.03;;;4.10;99.90;;;;;;5091933;28;20016;-55
2022/02/21 12:52:14;;;;;;;19.95;7.05;;;4.10;99.90;;;;;;5074453;28;20380;-60
2022/02/21 12:54:48;;;;;;;15.68;7.57;;;4.10;99.90;;;;;;5088048;28;20472;-58
2022/02/21 12:57:15;;;;;;;13.63;6.65;;;4.30;99.90;;;;;;5091963;28;20027;-60
2022/02/21 12:59:42;;;;;;;14.32;6.28;;;4.30;99.90;;;;;;5092025;28;20028;-59
2022/02/21 13:02:11;;;;;;;15.98;8.75;;;4.40;99.90;;;;;;5089551;28;20020;-58
2022/02/21 13:04:36;;;;;;;14.27;7.38;;;4.40;99.90;;;;;;5073214;28;20027;-61